sensor_id;sensor_type;location;lat;lon;timestamp;P1;durP1;ratioP1;P2;durP2;ratioP2
43527;SDS011;52359;42.658;23.320;2022-08-19T19:38:36;11.57;;;5.10;;
43527;SDS011;52359;42.658;23.320;2022-08-19T19:41:03;8.15;;;4.55;;
43527;SDS011;52359;42.658;23.320;2022-08-19T19:43:29;6.03;;;5.38;;
43527;SDS011;52359;42.658;23.320;2022-08-19T19:45:56;8.38;;;4.57;;
43527;SDS011;52359;42.658;23.320;2022-08-19T19:48:23;9.40;;;5.07;;
43527;SDS011;52359;42.658;23.320;2022-08-19T19:50:51;14.68;;;5.95;;
43527;SDS011;52359;42.658;23.320;2022-08-19T19:53:18;7.80;;;5.45;;
43527;SDS011;52359;42.658;23.320;2022-08-19T19:55:44;8.90;;;5.38;;
43527;SDS011;52359;42.658;23.320;2022-08-19T19:58:10;12.20;;;5.75;;
43527;SDS011;52359;42.658;23.320;2022-08-19T20:00:36;8.88;;;5.07;;
43527;SDS011;52359;42.658;23.320;2022-08-19T20:03:03;12.05;;;5.07;;
43527;SDS011;52359;42.658;23.320;2022-08-19T20:05:29;17.00;;;6.10;;
43527;SDS011;52359;42.658;23.320;2022-08-19T20:07:55;11.43;;;5.18;;
43527;SDS011;52359;42.658;23.320;2022-08-19T20:10:41;15.93;;;6.45;;
43527;SDS011;52359;42.658;23.320;2022-08-19T20:13:08;11.23;;;5.80;;
43527;SDS011;52359;42.658;23.320;2022-08-19T20:15:34;28.60;;;7.05;;
43527;SDS011;52359;42.658;23.320;2022-08-19T20:18:00;19.70;;;6.25;;
43527;SDS011;52359;42.658;23.320;2022-08-19T20:20:28;16.58;;;7.55;;
43527;SDS011;52359;42.658;23.320;2022-08-19T20:22:55;23.70;;;7.15;;
43527;SDS011;52359;42.658;23.320;2022-08-19T20:25:21;20.63;;;7.15;;
43527;SDS011;52359;42.658;23.320;2022-08-19T20:27:47;10.23;;;6.13;;
43527;SDS011;52359;42.658;23.320;2022-08-19T20:30:14;14.70;;;5.72;;
43527;SDS011;52359;42.658;23.320;2022-08-19T20:32:41;18.75;;;8.25;;
43527;SDS011;52359;42.658;23.320;2022-08-19T20:35:09;12.65;;;7.57;;
43527;SDS011;52359;42.658;23.320;2022-08-19T20:37:35;17.67;;;7.68;;
43527;SDS011;52359;42.658;23.320;2022-08-19T20:40:02;17.00;;;8.73;;
43527;SDS011;52359;42.658;23.320;2022-08-19T20:42:28;15.43;;;8.30;;
43527;SDS011;52359;42.658;23.320;2022-08-19T20:44:54;13.60;;;7.13;;
43527;SDS011;52359;42.658;23.320;2022-08-19T20:47:22;18.02;;;7.40;;
43527;SDS011;52359;42.658;23.320;2022-08-19T20:49:48;26.85;;;7.47;;
43527;SDS011;52359;42.658;23.320;2022-08-19T20:52:15;12.80;;;6.43;;
43527;SDS011;52359;42.658;23.320;2022-08-19T20:54:42;12.25;;;6.85;;
43527;SDS011;52359;42.658;23.320;2022-08-19T20:57:08;15.18;;;8.00;;
43527;SDS011;52359;42.658;23.320;2022-08-19T20:59:34;15.45;;;7.45;;
43527;SDS011;52359;42.658;23.320;2022-08-19T21:02:01;13.15;;;6.63;;
43527;SDS011;52359;42.658;23.320;2022-08-19T21:04:27;9.90;;;6.43;;
43527;SDS011;52359;42.658;23.320;2022-08-19T21:06:53;9.43;;;6.07;;
43527;SDS011;52359;42.658;23.320;2022-08-19T21:09:19;11.02;;;7.00;;
43527;SDS011;52359;42.658;23.320;2022-08-19T21:11:45;10.73;;;6.38;;
43527;SDS011;52359;42.658;23.320;2022-08-19T21:14:11;12.35;;;6.03;;
43527;SDS011;52359;42.658;23.320;2022-08-19T21:16:37;10.68;;;6.20;;
43527;SDS011;52359;42.658;23.320;2022-08-19T21:19:03;13.38;;;6.03;;
43527;SDS011;52359;42.658;23.320;2022-08-19T21:21:30;8.15;;;6.15;;
43527;SDS011;52359;42.658;23.320;2022-08-19T21:23:57;14.98;;;5.95;;
43527;SDS011;52359;42.658;23.320;2022-08-19T21:26:23;9.70;;;5.85;;
43527;SDS011;52359;42.658;23.320;2022-08-19T21:28:49;6.78;;;5.88;;
43527;SDS011;52359;42.658;23.320;2022-08-19T21:31:16;13.90;;;5.63;;
43527;SDS011;52359;42.658;23.320;2022-08-19T21:33:42;8.93;;;5.40;;
43527;SDS011;52359;42.658;23.320;2022-08-19T21:36:08;8.20;;;6.18;;
43527;SDS011;52359;42.658;23.320;2022-08-19T21:38:34;12.00;;;5.70;;
43527;SDS011;52359;42.658;23.320;2022-08-19T21:41:02;10.63;;;6.32;;
43527;SDS011;52359;42.658;23.320;2022-08-19T21:43:28;6.75;;;5.80;;
43527;SDS011;52359;42.658;23.320;2022-08-19T21:45:55;14.52;;;6.00;;
43527;SDS011;52359;42.658;23.320;2022-08-19T21:48:21;7.18;;;6.00;;
43527;SDS011;52359;42.658;23.320;2022-08-19T21:50:47;21.27;;;6.13;;
43527;SDS011;52359;42.658;23.320;2022-08-19T21:53:15;16.40;;;5.60;;
43527;SDS011;52359;42.658;23.320;2022-08-19T21:55:42;10.00;;;5.35;;
43527;SDS011;52359;42.658;23.320;2022-08-19T21:58:08;6.85;;;5.28;;
43527;SDS011;52359;42.658;23.320;2022-08-19T22:00:35;8.52;;;5.90;;
43527;SDS011;52359;42.658;23.320;2022-08-19T22:03:02;6.05;;;5.43;;
43527;SDS011;52359;42.658;23.320;2022-08-19T22:05:29;10.77;;;6.38;;
43527;SDS011;52359;42.658;23.320;2022-08-19T22:07:57;7.15;;;5.28;;
43527;SDS011;52359;42.658;23.320;2022-08-19T22:10:24;11.85;;;5.53;;
43527;SDS011;52359;42.658;23.320;2022-08-19T22:12:51;9.93;;;6.88;;
43527;SDS011;52359;42.658;23.320;2022-08-19T22:15:18;8.23;;;5.22;;
43527;SDS011;52359;42.658;23.320;2022-08-19T22:17:47;11.68;;;5.22;;
43527;SDS011;52359;42.658;23.320;2022-08-19T22:20:15;8.30;;;5.47;;
43527;SDS011;52359;42.658;23.320;2022-08-19T22:22:52;11.43;;;5.28;;
43527;SDS011;52359;42.658;23.320;2022-08-19T22:25:22;6.65;;;4.50;;
43527;SDS011;52359;42.658;23.320;2022-08-19T22:27:49;8.45;;;5.45;;
43527;SDS011;52359;42.658;23.320;2022-08-19T22:30:15;5.93;;;5.25;;
43527;SDS011;52359;42.658;23.320;2022-08-19T22:32:50;8.18;;;5.22;;
43527;SDS011;52359;42.658;23.320;2022-08-19T22:35:17;22.70;;;5.75;;
43527;SDS011;52359;42.658;23.320;2022-08-19T22:37:44;22.20;;;5.28;;
43527;SDS011;52359;42.658;23.320;2022-08-19T22:40:11;15.45;;;5.82;;
43527;SDS011;52359;42.658;23.320;2022-08-19T22:42:38;12.43;;;5.70;;
43527;SDS011;52359;42.658;23.320;2022-08-19T22:45:04;6.43;;;5.82;;
43527;SDS011;52359;42.658;23.320;2022-08-19T22:47:30;8.10;;;6.35;;
43527;SDS011;52359;42.658;23.320;2022-08-19T22:49:57;7.50;;;5.65;;
43527;SDS011;52359;42.658;23.320;2022-08-19T22:52:23;6.90;;;5.00;;
43527;SDS011;52359;42.658;23.320;2022-08-19T22:54:49;10.00;;;5.32;;
43527;SDS011;52359;42.658;23.320;2022-08-19T22:57:16;8.07;;;4.75;;
43527;SDS011;52359;42.658;23.320;2022-08-19T22:59:49;9.15;;;5.15;;
43527;SDS011;52359;42.658;23.320;2022-08-19T23:02:23;7.43;;;5.15;;
43527;SDS011;52359;42.658;23.320;2022-08-19T23:04:50;9.55;;;4.82;;
43527;SDS011;52359;42.658;23.320;2022-08-19T23:07:17;6.78;;;5.53;;
43527;SDS011;52359;42.658;23.320;2022-08-19T23:09:44;12.25;;;6.07;;
43527;SDS011;52359;42.658;23.320;2022-08-19T23:12:11;7.97;;;4.82;;
43527;SDS011;52359;42.658;23.320;2022-08-19T23:14:38;13.13;;;5.07;;
43527;SDS011;52359;42.658;23.320;2022-08-19T23:17:05;10.32;;;5.57;;
43527;SDS011;52359;42.658;23.320;2022-08-19T23:19:31;5.78;;;5.18;;
43527;SDS011;52359;42.658;23.320;2022-08-19T23:21:57;6.15;;;5.35;;
43527;SDS011;52359;42.658;23.320;2022-08-19T23:24:24;10.35;;;5.60;;
43527;SDS011;52359;42.658;23.320;2022-08-19T23:26:50;9.10;;;5.40;;
43527;SDS011;52359;42.658;23.320;2022-08-19T23:29:34;7.28;;;5.10;;
43527;SDS011;52359;42.658;23.320;2022-08-19T23:32:20;5.78;;;5.20;;
43527;SDS011;52359;42.658;23.320;2022-08-19T23:34:46;5.97;;;5.38;;
43527;SDS011;52359;42.658;23.320;2022-08-19T23:37:12;8.00;;;5.55;;
43527;SDS011;52359;42.658;23.320;2022-08-19T23:39:38;15.20;;;5.10;;
43527;SDS011;52359;42.658;23.320;2022-08-19T23:42:07;9.05;;;6.10;;
43527;SDS011;52359;42.658;23.320;2022-08-19T23:44:35;7.13;;;5.38;;
43527;SDS011;52359;42.658;23.320;2022-08-19T23:47:01;15.80;;;6.05;;
43527;SDS011;52359;42.658;23.320;2022-08-19T23:49:27;7.28;;;5.00;;
43527;SDS011;52359;42.658;23.320;2022-08-19T23:51:55;13.95;;;5.22;;
43527;SDS011;52359;42.658;23.320;2022-08-19T23:54:22;10.88;;;5.40;;
43527;SDS011;52359;42.658;23.320;2022-08-19T23:56:48;6.18;;;5.15;;
43527;SDS011;52359;42.658;23.320;2022-08-19T23:59:14;6.50;;;5.40;;
